createdAt,value
2022-12-29T00:00:04.120Z,8.77
2022-12-29T00:02:32.450Z,8.80
2022-12-29T00:05:00.739Z,7.47
2022-12-29T00:07:29.052Z,8.07
2022-12-29T00:09:57.293Z,7.93
2022-12-29T00:12:25.531Z,8.37
2022-12-29T00:15:11.359Z,8.10
2022-12-29T00:17:41.000Z,8.57
2022-12-29T00:20:39.319Z,7.73
2022-12-29T00:23:24.717Z,8.23
2022-12-29T00:26:10.277Z,7.87
2022-12-29T00:28:56.044Z,7.87
2022-12-29T00:31:41.638Z,7.73
2022-12-29T00:34:31.159Z,7.20
2022-12-29T00:36:59.659Z,6.50
2022-12-29T00:39:45.167Z,7.33
2022-12-29T00:42:36.086Z,6.80
2022-12-29T00:45:04.601Z,7.23
2022-12-29T00:47:32.831Z,7.63
2022-12-29T00:50:01.459Z,6.13
2022-12-29T00:52:29.718Z,7.07
2022-12-29T00:54:58.007Z,7.70
2022-12-29T00:57:26.297Z,6.83
2022-12-29T00:59:54.525Z,6.63
2022-12-29T01:02:22.860Z,7.07
2022-12-29T01:04:51.104Z,6.97
2022-12-29T01:07:20.692Z,6.77
2022-12-29T01:10:06.476Z,6.77
2022-12-29T01:12:46.247Z,6.90
2022-12-29T01:15:16.729Z,5.90
2022-12-29T01:17:45.217Z,6.30
2022-12-29T01:20:14.086Z,7.13
2022-12-29T01:22:44.766Z,5.97
2022-12-29T01:25:13.004Z,6.87
2022-12-29T01:27:42.309Z,5.77
2022-12-29T01:30:11.959Z,6.70
2022-12-29T01:32:40.182Z,6.00
2022-12-29T01:35:09.210Z,5.57
2022-12-29T01:37:37.481Z,6.13
2022-12-29T01:40:08.554Z,6.07
2022-12-29T01:42:36.773Z,6.47
2022-12-29T01:45:11.251Z,5.80
2022-12-29T01:47:44.056Z,5.60
2022-12-29T01:50:17.004Z,6.60
2022-12-29T01:52:55.428Z,6.07
2022-12-29T01:55:25.748Z,6.03
2022-12-29T01:57:55.601Z,5.97
2022-12-29T02:00:24.158Z,5.60
2022-12-29T02:02:54.768Z,6.03
2022-12-29T02:05:30.234Z,5.33
2022-12-29T02:07:58.806Z,6.20
2022-12-29T02:10:32.832Z,6.10
2022-12-29T02:13:02.061Z,5.50
2022-12-29T02:15:50.998Z,5.53
2022-12-29T02:18:35.282Z,6.17
2022-12-29T02:21:48.321Z,5.50
2022-12-29T02:25:01.977Z,5.10
2022-12-29T02:28:39.662Z,4.93
2022-12-29T02:31:19.428Z,5.00
2022-12-29T02:34:03.480Z,4.77
2022-12-29T02:36:43.268Z,5.17
2022-12-29T02:39:24.114Z,6.07
2022-12-29T02:42:06.094Z,4.97
2022-12-29T02:44:48.200Z,5.40
2022-12-29T02:47:24.779Z,5.60
2022-12-29T02:50:00.797Z,5.43
2022-12-29T02:52:34.024Z,5.40
2022-12-29T02:55:01.325Z,5.53
2022-12-29T02:57:36.051Z,5.33
2022-12-29T03:00:10.058Z,5.47
2022-12-29T03:03:10.186Z,6.33
2022-12-29T03:05:57.099Z,5.67
2022-12-29T03:08:34.349Z,4.80
2022-12-29T03:11:06.154Z,5.50
2022-12-29T03:14:02.575Z,5.97
2022-12-29T03:16:37.418Z,6.10
2022-12-29T03:19:12.880Z,5.60
2022-12-29T03:22:04.777Z,5.60
2022-12-29T03:24:38.685Z,5.73
2022-12-29T03:27:11.307Z,5.47
2022-12-29T03:29:47.283Z,5.93
2022-12-29T03:32:17.558Z,6.37
2022-12-29T03:34:48.894Z,5.67
2022-12-29T03:37:20.744Z,6.10
2022-12-29T03:39:49.359Z,6.27
2022-12-29T03:42:24.812Z,5.90
2022-12-29T03:44:56.689Z,6.10
2022-12-29T03:47:26.217Z,6.07
2022-12-29T03:49:56.599Z,6.33
2022-12-29T03:52:24.828Z,6.10
2022-12-29T03:54:53.049Z,5.33
2022-12-29T03:57:21.299Z,5.63
2022-12-29T03:59:49.899Z,5.30
2022-12-29T04:02:18.517Z,5.47
2022-12-29T04:04:46.897Z,5.53
2022-12-29T04:07:16.482Z,5.30
2022-12-29T04:09:46.355Z,5.50
2022-12-29T04:12:15.376Z,5.63
2022-12-29T04:14:43.657Z,5.93
2022-12-29T04:17:11.916Z,5.93
2022-12-29T04:19:40.111Z,5.80
2022-12-29T04:22:08.330Z,6.27
2022-12-29T04:24:37.973Z,6.10
2022-12-29T04:27:06.573Z,6.20
2022-12-29T04:29:35.035Z,6.53
2022-12-29T04:32:03.263Z,6.07
2022-12-29T04:34:31.482Z,6.00
2022-12-29T04:36:59.689Z,5.80
2022-12-29T04:39:27.904Z,5.87
2022-12-29T04:41:57.657Z,6.30
2022-12-29T04:44:25.894Z,5.57
2022-12-29T04:46:54.186Z,5.97
2022-12-29T04:49:22.468Z,6.47
2022-12-29T04:51:50.697Z,5.93
2022-12-29T04:54:18.934Z,6.90
2022-12-29T04:56:47.200Z,5.77
2022-12-29T04:59:16.816Z,6.10
2022-12-29T05:01:45.751Z,6.17
2022-12-29T05:04:14.530Z,5.77
2022-12-29T05:06:42.820Z,6.10
2022-12-29T05:09:11.138Z,6.43
2022-12-29T05:11:39.357Z,5.87
2022-12-29T05:14:07.645Z,5.57
2022-12-29T05:16:37.346Z,6.27
2022-12-29T05:19:05.667Z,6.30
2022-12-29T05:21:33.953Z,5.33
2022-12-29T05:24:02.228Z,5.63
2022-12-29T05:26:30.520Z,5.50
2022-12-29T05:28:58.821Z,5.30
2022-12-29T05:31:27.178Z,5.63
2022-12-29T05:33:56.888Z,4.37
2022-12-29T05:36:25.155Z,4.57
2022-12-29T05:38:53.410Z,4.93
2022-12-29T05:41:21.891Z,4.27
2022-12-29T05:43:50.207Z,5.00
2022-12-29T05:46:18.504Z,5.57
2022-12-29T05:48:46.892Z,5.20
2022-12-29T05:51:16.470Z,5.13
2022-12-29T05:53:46.618Z,5.07
2022-12-29T05:56:14.899Z,4.60
2022-12-29T05:58:43.178Z,4.37
2022-12-29T06:01:11.423Z,4.47
2022-12-29T06:03:44.506Z,5.10
2022-12-29T06:06:17.689Z,5.20
2022-12-29T06:08:46.062Z,4.70
2022-12-29T06:11:14.612Z,4.93
2022-12-29T06:13:43.552Z,4.70
2022-12-29T06:16:11.867Z,4.37
2022-12-29T06:18:40.194Z,4.20
2022-12-29T06:21:09.064Z,4.27
2022-12-29T06:23:38.679Z,4.73
2022-12-29T06:26:07.162Z,4.30
2022-12-29T06:28:35.428Z,4.70
2022-12-29T06:31:04.024Z,4.33
2022-12-29T06:33:32.561Z,4.00
2022-12-29T06:36:00.783Z,4.10
2022-12-29T06:38:29.114Z,4.17
2022-12-29T06:40:58.691Z,4.63
2022-12-29T06:43:26.948Z,4.70
2022-12-29T06:45:55.288Z,6.93
2022-12-29T06:48:24.521Z,7.17
2022-12-29T06:50:52.774Z,7.43
2022-12-29T06:53:21.022Z,5.93
2022-12-29T06:55:49.310Z,4.93
2022-12-29T06:58:18.948Z,5.33
2022-12-29T07:00:47.280Z,4.53
2022-12-29T07:03:15.598Z,4.80
2022-12-29T07:05:43.910Z,5.70
2022-12-29T07:08:12.193Z,5.63
2022-12-29T07:10:40.558Z,4.70
2022-12-29T07:13:09.201Z,4.23
2022-12-29T07:15:39.242Z,5.00
2022-12-29T07:18:07.683Z,4.93
2022-12-29T07:20:36.161Z,4.93
2022-12-29T07:23:05.086Z,5.30
2022-12-29T07:25:33.354Z,5.70
2022-12-29T07:28:01.618Z,5.67
2022-12-29T07:30:29.879Z,5.37
2022-12-29T07:32:59.591Z,6.20
2022-12-29T07:35:27.851Z,6.93
2022-12-29T07:37:56.118Z,6.40
2022-12-29T07:40:24.413Z,5.80
2022-12-29T07:42:52.716Z,5.73
2022-12-29T07:45:20.950Z,5.57
2022-12-29T07:47:51.049Z,5.97
2022-12-29T07:50:20.692Z,5.47
2022-12-29T07:52:49.010Z,5.40
2022-12-29T07:55:17.640Z,5.73
2022-12-29T07:57:46.073Z,5.83
2022-12-29T08:00:16.210Z,6.10
2022-12-29T08:02:44.568Z,6.47
2022-12-29T08:05:12.914Z,6.07
2022-12-29T08:07:42.585Z,5.67
2022-12-29T08:10:11.172Z,6.47
2022-12-29T08:12:41.010Z,6.10
2022-12-29T08:15:11.799Z,6.07
2022-12-29T08:17:40.684Z,6.60
2022-12-29T08:20:10.788Z,6.60
2022-12-29T08:22:39.143Z,6.20
2022-12-29T08:25:10.093Z,6.67
2022-12-29T08:27:38.429Z,6.40
2022-12-29T08:30:08.441Z,8.03
2022-12-29T08:32:36.712Z,8.67
2022-12-29T08:35:05.603Z,8.27
2022-12-29T08:37:34.980Z,8.97
2022-12-29T08:40:04.968Z,8.17
2022-12-29T08:42:34.931Z,7.77
2022-12-29T08:45:03.836Z,8.37
2022-12-29T08:47:32.140Z,8.20
2022-12-29T08:50:00.397Z,8.37
2022-12-29T08:52:28.673Z,9.23
2022-12-29T08:54:56.985Z,8.97
2022-12-29T08:57:25.915Z,7.93
2022-12-29T08:59:55.515Z,8.70
2022-12-29T09:02:24.502Z,9.63
2022-12-29T09:04:53.424Z,10.00
2022-12-29T09:07:21.755Z,10.50
2022-12-29T09:09:50.048Z,12.40
2022-12-29T09:12:19.176Z,12.00
2022-12-29T09:14:48.615Z,8.77
2022-12-29T09:17:35.889Z,7.10
2022-12-29T09:20:04.399Z,3.93
2022-12-29T09:22:32.750Z,5.07
2022-12-29T09:25:01.007Z,3.87
2022-12-29T09:27:29.237Z,2.90
2022-12-29T09:29:57.660Z,5.50
2022-12-29T09:32:31.208Z,4.90
2022-12-29T09:35:01.896Z,4.80
2022-12-29T09:37:30.301Z,4.80
2022-12-29T09:39:58.531Z,3.50
2022-12-29T09:42:34.335Z,3.13
2022-12-29T09:45:13.332Z,2.60
2022-12-29T09:47:43.991Z,1.97
2022-12-29T09:50:25.279Z,1.57
2022-12-29T09:52:59.906Z,1.93
2022-12-29T09:55:37.978Z,1.50
2022-12-29T09:58:12.236Z,2.00
2022-12-29T10:00:55.196Z,2.90
2022-12-29T10:03:30.239Z,3.50
2022-12-29T10:06:10.406Z,3.43
2022-12-29T10:08:44.536Z,3.43
2022-12-29T10:11:33.151Z,3.40
2022-12-29T10:14:23.559Z,2.33
2022-12-29T10:17:01.048Z,1.77
2022-12-29T10:19:52.289Z,1.90
2022-12-29T10:22:43.614Z,2.00
2022-12-29T10:25:18.586Z,1.90
2022-12-29T10:27:50.649Z,1.97
2022-12-29T10:30:20.231Z,1.80
2022-12-29T10:32:54.411Z,1.83
2022-12-29T10:35:26.976Z,1.70
2022-12-29T10:38:04.539Z,2.30
2022-12-29T10:40:40.941Z,1.73
2022-12-29T10:43:24.652Z,1.60
2022-12-29T10:45:54.883Z,1.70
2022-12-29T10:48:31.795Z,1.90
2022-12-29T10:51:05.320Z,1.63
2022-12-29T10:53:42.607Z,1.77
2022-12-29T10:56:29.998Z,1.60
2022-12-29T10:59:02.575Z,1.50
2022-12-29T11:01:40.107Z,1.93
2022-12-29T11:04:29.208Z,1.50
2022-12-29T11:06:59.629Z,1.50
2022-12-29T11:09:41.890Z,1.50
2022-12-29T11:12:25.622Z,1.07
2022-12-29T11:15:16.891Z,1.30
2022-12-29T11:17:51.589Z,1.20
2022-12-29T11:20:36.523Z,1.20
2022-12-29T11:23:23.266Z,1.50
2022-12-29T11:26:19.907Z,1.50
2022-12-29T11:28:50.365Z,1.60
2022-12-29T11:31:21.384Z,1.80
2022-12-29T11:33:49.866Z,1.73
2022-12-29T11:36:22.994Z,1.50
2022-12-29T11:38:55.991Z,1.57
2022-12-29T11:41:27.643Z,1.10
2022-12-29T11:43:58.208Z,1.30
2022-12-29T11:46:30.709Z,1.53
2022-12-29T11:49:01.659Z,1.60
2022-12-29T11:51:36.385Z,1.20
2022-12-29T11:54:08.300Z,1.20
2022-12-29T11:56:41.525Z,1.47
2022-12-29T11:59:42.698Z,1.10
2022-12-29T12:02:42.981Z,1.27
2022-12-29T12:05:32.056Z,1.20
2022-12-29T12:08:10.212Z,1.30
2022-12-29T12:10:47.010Z,1.00
2022-12-29T12:13:25.071Z,1.17
2022-12-29T12:16:01.699Z,1.00
2022-12-29T12:18:41.496Z,1.07
2022-12-29T12:21:21.047Z,1.10
2022-12-29T12:24:24.416Z,1.37
2022-12-29T12:27:03.342Z,1.93
2022-12-29T12:29:42.231Z,1.27
2022-12-29T12:32:18.968Z,1.43
2022-12-29T12:34:48.797Z,1.63
2022-12-29T12:37:45.185Z,1.27
2022-12-29T12:40:45.471Z,1.23
2022-12-29T12:43:41.947Z,1.87
2022-12-29T12:46:31.626Z,1.43
2022-12-29T12:49:32.527Z,1.23
2022-12-29T12:52:12.638Z,1.70
2022-12-29T12:55:03.091Z,1.37
2022-12-29T12:57:51.632Z,1.70
2022-12-29T13:00:24.419Z,1.60
2022-12-29T13:03:07.432Z,1.47
2022-12-29T13:06:08.217Z,1.63
2022-12-29T13:09:08.680Z,1.43
2022-12-29T13:11:54.047Z,2.03
2022-12-29T13:14:40.285Z,5.83
2022-12-29T13:17:20.490Z,6.17
2022-12-29T13:19:56.264Z,2.63
2022-12-29T13:22:33.136Z,3.40
2022-12-29T13:25:25.172Z,2.67
2022-12-29T13:28:02.592Z,2.50
2022-12-29T13:30:36.577Z,2.43
2022-12-29T13:33:21.158Z,2.13
2022-12-29T13:36:03.448Z,1.90
2022-12-29T13:38:38.652Z,1.60
2022-12-29T13:41:11.336Z,2.47
2022-12-29T13:43:44.175Z,1.83
2022-12-29T13:46:19.413Z,1.40
2022-12-29T13:48:54.440Z,1.30
2022-12-29T13:51:28.190Z,1.30
2022-12-29T13:54:15.008Z,1.37
2022-12-29T13:56:52.167Z,1.50
2022-12-29T13:59:28.698Z,1.27
2022-12-29T14:02:02.563Z,1.13
2022-12-29T14:04:34.329Z,1.40
2022-12-29T14:07:06.104Z,1.43
2022-12-29T14:09:48.749Z,1.00
2022-12-29T14:12:37.062Z,1.60
2022-12-29T14:15:16.862Z,1.07
2022-12-29T14:17:46.456Z,1.70
2022-12-29T14:20:24.810Z,2.03
2022-12-29T14:23:02.097Z,2.50
2022-12-29T14:25:58.147Z,3.37
2022-12-29T14:28:28.998Z,5.27
2022-12-29T14:30:59.368Z,4.57
2022-12-29T14:33:32.146Z,4.13
2022-12-29T14:36:22.741Z,4.93
2022-12-29T14:38:51.278Z,4.10
2022-12-29T14:41:32.904Z,2.87
2022-12-29T14:44:19.968Z,3.07
2022-12-29T14:46:58.476Z,2.67
2022-12-29T14:49:30.799Z,2.70
2022-12-29T14:52:16.375Z,2.30
2022-12-29T14:54:56.484Z,2.00
2022-12-29T14:57:32.302Z,1.70
2022-12-29T15:00:09.945Z,2.17
2022-12-29T15:02:43.199Z,2.30
2022-12-29T15:05:33.056Z,2.07
2022-12-29T15:08:05.046Z,2.67
2022-12-29T15:10:43.863Z,2.77
2022-12-29T15:13:20.472Z,3.30
2022-12-29T15:15:48.835Z,5.63
2022-12-29T15:18:26.432Z,3.80
2022-12-29T15:20:58.214Z,2.77
2022-12-29T15:23:28.707Z,2.90
2022-12-29T15:25:59.806Z,3.50
2022-12-29T15:28:29.898Z,2.67
2022-12-29T15:31:06.140Z,3.00
2022-12-29T15:33:42.681Z,3.00
2022-12-29T15:36:15.407Z,3.43
2022-12-29T15:38:45.108Z,4.07
2022-12-29T15:41:28.342Z,6.37
2022-12-29T15:44:11.794Z,5.73
2022-12-29T15:46:41.625Z,4.63
2022-12-29T15:49:11.724Z,8.07
2022-12-29T15:51:41.734Z,5.30
2022-12-29T15:54:19.603Z,3.97
2022-12-29T15:56:48.299Z,3.27
2022-12-29T15:59:27.528Z,4.80
2022-12-29T16:01:57.299Z,4.50
2022-12-29T16:04:28.549Z,5.30
2022-12-29T16:07:00.280Z,3.60
2022-12-29T16:09:35.997Z,3.07
2022-12-29T16:12:09.057Z,2.77
2022-12-29T16:14:45.281Z,3.40
2022-12-29T16:17:20.412Z,2.53
2022-12-29T16:19:53.498Z,3.90
2022-12-29T16:22:29.342Z,2.97
2022-12-29T16:25:05.122Z,2.70
2022-12-29T16:27:38.573Z,4.00
2022-12-29T16:30:18.848Z,2.53
2022-12-29T16:32:49.798Z,5.07
2022-12-29T16:35:22.176Z,7.23
2022-12-29T16:37:51.700Z,6.17
2022-12-29T16:40:31.486Z,6.10
2022-12-29T16:43:02.369Z,6.20
2022-12-29T16:46:24.595Z,6.13
2022-12-29T16:48:58.374Z,4.83
2022-12-29T16:51:33.222Z,5.83
2022-12-29T16:54:02.279Z,4.93
2022-12-29T16:56:35.670Z,6.37
2022-12-29T16:59:07.083Z,5.37
2022-12-29T17:01:38.622Z,7.13
2022-12-29T17:04:11.152Z,6.10
2022-12-29T17:06:40.257Z,4.17
2022-12-29T17:09:20.533Z,4.40
2022-12-29T17:12:05.410Z,5.00
2022-12-29T17:14:45.433Z,7.23
2022-12-29T17:17:20.451Z,4.47
2022-12-29T17:19:53.286Z,4.17
2022-12-29T17:22:26.271Z,7.97
2022-12-29T17:24:55.638Z,6.97
2022-12-29T17:27:32.948Z,6.70
2022-12-29T17:30:05.198Z,2.87
2022-12-29T17:32:34.491Z,2.87
2022-12-29T17:35:02.825Z,2.30
2022-12-29T17:37:38.017Z,2.50
2022-12-29T17:40:10.263Z,2.10
2022-12-29T17:42:45.772Z,2.50
2022-12-29T17:45:20.137Z,2.27
2022-12-29T17:47:48.744Z,2.73
2022-12-29T17:50:20.047Z,4.67
2022-12-29T17:52:55.308Z,3.00
2022-12-29T17:55:34.765Z,3.10
2022-12-29T17:58:18.904Z,2.87
2022-12-29T18:00:48.655Z,3.87
2022-12-29T18:03:18.466Z,3.97
2022-12-29T18:05:47.100Z,3.93
2022-12-29T18:08:15.462Z,4.33
2022-12-29T18:10:44.510Z,6.03
2022-12-29T18:13:22.528Z,5.80
2022-12-29T18:15:51.474Z,6.63
2022-12-29T18:18:22.513Z,5.70
2022-12-29T18:20:52.997Z,6.83
2022-12-29T18:23:26.435Z,5.80
2022-12-29T18:25:59.904Z,9.70
2022-12-29T18:28:30.234Z,6.30
2022-12-29T18:31:01.156Z,5.60
2022-12-29T18:33:31.323Z,6.10
2022-12-29T18:36:02.832Z,4.73
2022-12-29T18:38:31.379Z,6.07
2022-12-29T18:41:00.508Z,8.20
2022-12-29T18:43:30.834Z,6.33
2022-12-29T18:45:59.245Z,6.33
2022-12-29T18:48:28.120Z,4.80
2022-12-29T18:50:56.594Z,5.37
2022-12-29T18:53:26.622Z,5.80
2022-12-29T18:55:57.478Z,5.10
2022-12-29T18:58:32.265Z,5.40
2022-12-29T19:01:04.013Z,4.70
2022-12-29T19:03:32.870Z,4.10
2022-12-29T19:06:01.450Z,3.97
2022-12-29T19:08:29.946Z,4.93
2022-12-29T19:10:58.315Z,5.40
2022-12-29T19:13:29.459Z,6.47
2022-12-29T19:15:58.401Z,3.40
2022-12-29T19:18:47.640Z,4.00
2022-12-29T19:21:20.065Z,4.13
2022-12-29T19:23:48.816Z,4.40
2022-12-29T19:26:31.265Z,4.70
2022-12-29T19:29:00.934Z,4.67
2022-12-29T19:31:29.749Z,4.00
2022-12-29T19:33:59.860Z,4.17
2022-12-29T19:36:28.119Z,3.73
2022-12-29T19:38:57.036Z,4.40
2022-12-29T19:41:25.740Z,4.40
2022-12-29T19:43:54.086Z,3.60
2022-12-29T19:46:23.379Z,4.00
2022-12-29T19:48:51.756Z,8.13
2022-12-29T19:51:24.573Z,7.73
2022-12-29T19:53:52.919Z,4.90
2022-12-29T19:56:21.278Z,3.87
2022-12-29T19:58:50.602Z,3.67
2022-12-29T20:01:22.666Z,3.20
2022-12-29T20:03:52.837Z,3.60
2022-12-29T20:06:21.338Z,5.37
2022-12-29T20:08:50.961Z,8.33
2022-12-29T20:11:20.727Z,27.43
2022-12-29T20:13:49.192Z,7.87
2022-12-29T20:16:20.089Z,6.80
2022-12-29T20:18:49.540Z,10.10
2022-12-29T20:21:21.915Z,6.03
2022-12-29T20:23:52.618Z,6.50
2022-12-29T20:26:26.664Z,6.70
2022-12-29T20:28:57.485Z,10.50
2022-12-29T20:31:29.070Z,6.43
2022-12-29T20:33:58.708Z,8.47
2022-12-29T20:36:30.185Z,6.00
2022-12-29T20:39:05.319Z,6.73
2022-12-29T20:41:34.196Z,6.57
2022-12-29T20:44:05.228Z,6.07
2022-12-29T20:46:43.066Z,9.50
2022-12-29T20:49:12.319Z,11.07
2022-12-29T20:54:38.663Z,9.83
2022-12-29T20:57:08.174Z,8.87
2022-12-29T20:59:36.524Z,11.53
2022-12-29T21:02:05.213Z,7.50
2022-12-29T21:04:57.738Z,8.10
2022-12-29T21:07:22.075Z,10.00
2022-12-29T21:09:51.811Z,7.10
2022-12-29T21:12:20.131Z,6.20
2022-12-29T21:14:48.396Z,4.40
2022-12-29T21:17:16.730Z,16.83
2022-12-29T21:19:45.037Z,7.90
2022-12-29T21:22:13.383Z,10.57
2022-12-29T21:24:41.670Z,6.97
2022-12-29T21:27:11.329Z,5.47
2022-12-29T21:29:39.573Z,4.70
2022-12-29T21:32:07.921Z,10.03
2022-12-29T21:34:36.479Z,4.33
2022-12-29T21:37:04.810Z,3.20
2022-12-29T21:39:33.073Z,7.00
2022-12-29T21:42:02.649Z,4.30
2022-12-29T21:44:49.820Z,3.90
2022-12-29T21:47:18.150Z,4.13
2022-12-29T21:49:46.425Z,4.00
2022-12-29T21:52:13.778Z,4.33
2022-12-29T21:54:59.335Z,4.27
2022-12-29T21:57:44.989Z,4.20
2022-12-29T22:00:34.237Z,4.40
2022-12-29T22:03:23.467Z,4.77
2022-12-29T22:06:10.292Z,4.47
2022-12-29T22:08:56.340Z,6.10
2022-12-29T22:11:42.081Z,5.37
2022-12-29T22:14:10.452Z,4.90
2022-12-29T22:16:40.680Z,4.27
2022-12-29T22:19:10.616Z,4.17
2022-12-29T22:21:38.936Z,4.63
2022-12-29T22:24:08.718Z,4.80
2022-12-29T22:26:36.998Z,5.13
2022-12-29T22:29:05.252Z,4.73
2022-12-29T22:31:33.889Z,4.63
2022-12-29T22:34:05.203Z,4.77
2022-12-29T22:36:34.108Z,4.10
2022-12-29T22:39:02.481Z,4.13
2022-12-29T22:41:30.848Z,5.40
2022-12-29T22:43:59.251Z,4.17
2022-12-29T22:46:27.749Z,4.47
2022-12-29T22:48:58.028Z,3.97
2022-12-29T22:51:27.780Z,4.40
2022-12-29T22:53:56.119Z,4.33
2022-12-29T22:56:24.575Z,4.10
2022-12-29T22:58:52.941Z,3.90
2022-12-29T23:01:22.710Z,3.97
2022-12-29T23:03:51.515Z,4.30
2022-12-29T23:06:19.963Z,4.40
2022-12-29T23:08:49.728Z,4.83
2022-12-29T23:11:18.188Z,4.40
2022-12-29T23:13:46.938Z,3.90
2022-12-29T23:16:16.478Z,3.90
2022-12-29T23:18:46.765Z,3.80
2022-12-29T23:21:16.295Z,8.63
2022-12-29T23:23:57.551Z,20.87
2022-12-29T23:26:30.971Z,10.93
2022-12-29T23:29:00.772Z,6.97
2022-12-29T23:31:30.720Z,4.20
2022-12-29T23:33:59.403Z,3.93
2022-12-29T23:36:28.421Z,3.60
2022-12-29T23:38:57.332Z,3.30
2022-12-29T23:41:28.166Z,4.00
2022-12-29T23:43:56.952Z,4.03
2022-12-29T23:46:28.755Z,4.33
2022-12-29T23:48:57.543Z,4.80
2022-12-29T23:51:26.311Z,3.47
2022-12-29T23:53:54.700Z,3.27
2022-12-29T23:56:26.300Z,3.33
2022-12-29T23:58:55.564Z,3.53
